sensor_id;sensor_type;location;lat;lon;timestamp;pressure;altitude;pressure_sealevel;temperature;humidity
23419;BME280;11882;42.522;27.458;2022-08-18T00:02:02;100532.63;;;26.17;65.99
23419;BME280;11882;42.522;27.458;2022-08-18T00:04:32;100545.94;;;26.24;64.62
23419;BME280;11882;42.522;27.458;2022-08-18T00:07:00;100539.34;;;26.35;63.06
23419;BME280;11882;42.522;27.458;2022-08-18T00:09:27;100545.81;;;26.44;60.52
23419;BME280;11882;42.522;27.458;2022-08-18T00:11:54;100547.91;;;26.52;59.78
23419;BME280;11882;42.522;27.458;2022-08-18T00:14:21;100540.78;;;26.56;58.78
23419;BME280;11882;42.522;27.458;2022-08-18T00:16:51;100547.81;;;26.62;58.76
23419;BME280;11882;42.522;27.458;2022-08-18T00:19:19;100558.38;;;26.69;57.51
23419;BME280;11882;42.522;27.458;2022-08-18T00:21:48;100555.91;;;26.73;56.91
23419;BME280;11882;42.522;27.458;2022-08-18T00:24:15;100558.63;;;26.73;56.58
23419;BME280;11882;42.522;27.458;2022-08-18T00:26:42;100561.59;;;26.76;56.08
23419;BME280;11882;42.522;27.458;2022-08-18T00:29:09;100572.47;;;26.81;55.85
23419;BME280;11882;42.522;27.458;2022-08-18T00:31:36;100566.19;;;26.81;55.63
23419;BME280;11882;42.522;27.458;2022-08-18T00:34:03;100561.78;;;26.85;55.53
23419;BME280;11882;42.522;27.458;2022-08-18T00:36:31;100560.44;;;26.82;55.49
23419;BME280;11882;42.522;27.458;2022-08-18T00:39:00;100553.88;;;26.83;55.40
23419;BME280;11882;42.522;27.458;2022-08-18T00:41:27;100564.03;;;26.78;55.80
23419;BME280;11882;42.522;27.458;2022-08-18T00:43:55;100564.03;;;26.78;55.46
23419;BME280;11882;42.522;27.458;2022-08-18T00:46:26;100559.38;;;26.78;55.67
23419;BME280;11882;42.522;27.458;2022-08-18T00:48:54;100555.56;;;26.79;55.82
23419;BME280;11882;42.522;27.458;2022-08-18T00:51:24;100550.38;;;26.78;55.43
23419;BME280;11882;42.522;27.458;2022-08-18T00:53:57;100564.03;;;26.78;55.45
23419;BME280;11882;42.522;27.458;2022-08-18T00:56:29;100556.94;;;26.77;55.50
23419;BME280;11882;42.522;27.458;2022-08-18T00:59:04;100552.28;;;26.77;55.26
23419;BME280;11882;42.522;27.458;2022-08-18T01:01:34;100555.25;;;26.81;55.35
23419;BME280;11882;42.522;27.458;2022-08-18T01:04:07;100556.38;;;26.80;55.58
23419;BME280;11882;42.522;27.458;2022-08-18T01:06:41;100552.81;;;26.79;55.14
23419;BME280;11882;42.522;27.458;2022-08-18T01:09:09;100550.63;;;26.81;54.99
23419;BME280;11882;42.522;27.458;2022-08-18T01:11:38;100553.63;;;26.80;54.91
23419;BME280;11882;42.522;27.458;2022-08-18T01:14:07;100555.78;;;26.83;54.66
23419;BME280;11882;42.522;27.458;2022-08-18T01:16:35;100556.31;;;26.85;54.62
23419;BME280;11882;42.522;27.458;2022-08-18T01:19:19;100558.75;;;26.86;54.57
23419;BME280;11882;42.522;27.458;2022-08-18T01:22:10;100557.66;;;26.87;54.42
23419;BME280;11882;42.522;27.458;2022-08-18T01:24:40;100562.53;;;26.90;54.38
23419;BME280;11882;42.522;27.458;2022-08-18T01:27:25;100558.16;;;26.89;54.02
23419;BME280;11882;42.522;27.458;2022-08-18T01:30:00;100558.75;;;26.86;54.36
23419;BME280;11882;42.522;27.458;2022-08-18T01:32:28;100559.56;;;26.87;54.20
23419;BME280;11882;42.522;27.458;2022-08-18T01:34:55;100558.22;;;26.84;54.33
23419;BME280;11882;42.522;27.458;2022-08-18T01:37:23;100559.03;;;26.85;54.37
23419;BME280;11882;42.522;27.458;2022-08-18T01:39:51;100563.69;;;26.84;54.36
23419;BME280;11882;42.522;27.458;2022-08-18T01:42:18;100560.72;;;26.81;54.17
23419;BME280;11882;42.522;27.458;2022-08-18T01:44:47;100557.22;;;26.75;54.44
23419;BME280;11882;42.522;27.458;2022-08-18T01:47:16;100560.06;;;26.65;54.76
23419;BME280;11882;42.522;27.458;2022-08-18T01:49:43;100550.88;;;26.56;55.24
23419;BME280;11882;42.522;27.458;2022-08-18T01:52:15;100550.88;;;26.56;55.24
23419;BME280;11882;42.522;27.458;2022-08-18T01:54:43;100554.06;;;26.34;55.82
23419;BME280;11882;42.522;27.458;2022-08-18T01:57:13;100553.56;;;26.27;56.13
23419;BME280;11882;42.522;27.458;2022-08-18T01:59:40;100553.56;;;26.27;56.13
23419;BME280;11882;42.522;27.458;2022-08-18T02:02:08;100549.63;;;26.09;56.56
23419;BME280;11882;42.522;27.458;2022-08-18T02:04:36;100552.09;;;26.06;56.82
23419;BME280;11882;42.522;27.458;2022-08-18T02:07:06;100557.31;;;25.97;56.85
23419;BME280;11882;42.522;27.458;2022-08-18T02:09:34;100546.16;;;25.93;57.29
23419;BME280;11882;42.522;27.458;2022-08-18T02:12:02;100554.66;;;25.87;57.47
23419;BME280;11882;42.522;27.458;2022-08-18T02:14:31;100552.78;;;25.82;57.71
23419;BME280;11882;42.522;27.458;2022-08-18T02:17:00;100550.09;;;25.77;57.82
23419;BME280;11882;42.522;27.458;2022-08-18T02:19:27;100551.75;;;25.73;57.84
23419;BME280;11882;42.522;27.458;2022-08-18T02:21:54;100551.22;;;25.71;57.73
23419;BME280;11882;42.522;27.458;2022-08-18T02:24:21;100549.59;;;25.70;58.13
23419;BME280;11882;42.522;27.458;2022-08-18T02:26:48;100553.69;;;25.62;57.92
23419;BME280;11882;42.522;27.458;2022-08-18T02:29:15;100549.63;;;25.55;57.79
23419;BME280;11882;42.522;27.458;2022-08-18T02:31:44;100558.66;;;25.50;58.37
23419;BME280;11882;42.522;27.458;2022-08-18T02:34:11;100569.03;;;25.48;58.18
23419;BME280;11882;42.522;27.458;2022-08-18T02:36:38;100567.13;;;25.44;58.43
23419;BME280;11882;42.522;27.458;2022-08-18T02:39:05;100570.41;;;25.41;58.34
23419;BME280;11882;42.522;27.458;2022-08-18T02:41:32;100570.16;;;25.37;58.75
23419;BME280;11882;42.522;27.458;2022-08-18T02:43:59;100570.69;;;25.39;58.46
23419;BME280;11882;42.522;27.458;2022-08-18T02:46:26;100574.25;;;25.39;58.76
23419;BME280;11882;42.522;27.458;2022-08-18T02:48:55;100575.59;;;25.42;58.15
23419;BME280;11882;42.522;27.458;2022-08-18T02:51:22;100574.75;;;25.47;58.02
23419;BME280;11882;42.522;27.458;2022-08-18T02:53:49;100581.00;;;25.52;58.01
23419;BME280;11882;42.522;27.458;2022-08-18T02:56:18;100587.78;;;25.60;58.66
23419;BME280;11882;42.522;27.458;2022-08-18T02:58:51;100584.75;;;25.72;57.88
23419;BME280;11882;42.522;27.458;2022-08-18T03:01:19;100589.31;;;25.81;57.21
23419;BME280;11882;42.522;27.458;2022-08-18T03:03:46;100582.16;;;25.90;56.90
23419;BME280;11882;42.522;27.458;2022-08-18T03:06:15;100579.97;;;25.92;56.93
23419;BME280;11882;42.522;27.458;2022-08-18T03:08:43;100589.78;;;25.93;56.56
23419;BME280;11882;42.522;27.458;2022-08-18T03:11:14;100588.47;;;25.86;56.65
23419;BME280;11882;42.522;27.458;2022-08-18T03:13:41;100591.78;;;25.78;56.79
23419;BME280;11882;42.522;27.458;2022-08-18T03:16:09;100593.19;;;25.70;57.11
23419;BME280;11882;42.522;27.458;2022-08-18T03:18:36;100599.75;;;25.64;57.55
23419;BME280;11882;42.522;27.458;2022-08-18T03:21:06;100600.84;;;25.58;57.33
23419;BME280;11882;42.522;27.458;2022-08-18T03:23:36;100599.78;;;25.54;57.19
23419;BME280;11882;42.522;27.458;2022-08-18T03:26:06;100597.34;;;25.52;57.24
23419;BME280;11882;42.522;27.458;2022-08-18T03:28:36;100597.09;;;25.49;57.41
23419;BME280;11882;42.522;27.458;2022-08-18T03:31:05;100609.09;;;25.48;57.24
23419;BME280;11882;42.522;27.458;2022-08-18T03:33:33;100614.00;;;25.46;57.37
23419;BME280;11882;42.522;27.458;2022-08-18T03:36:03;100607.72;;;25.45;57.31
23419;BME280;11882;42.522;27.458;2022-08-18T03:38:30;100604.72;;;25.47;57.52
23419;BME280;11882;42.522;27.458;2022-08-18T03:40:59;100601.97;;;25.52;57.39
23419;BME280;11882;42.522;27.458;2022-08-18T03:43:26;100610.44;;;25.50;57.63
23419;BME280;11882;42.522;27.458;2022-08-18T03:45:54;100606.63;;;25.51;57.65
23419;BME280;11882;42.522;27.458;2022-08-18T03:48:21;100624.31;;;25.54;57.57
23419;BME280;11882;42.522;27.458;2022-08-18T03:50:49;100615.31;;;25.53;57.72
23419;BME280;11882;42.522;27.458;2022-08-18T03:53:16;100614.50;;;25.53;57.53
23419;BME280;11882;42.522;27.458;2022-08-18T03:55:43;100620.50;;;25.55;57.32
23419;BME280;11882;42.522;27.458;2022-08-18T03:58:12;100615.59;;;25.57;57.27
23419;BME280;11882;42.522;27.458;2022-08-18T04:00:40;100609.03;;;25.58;57.20
23419;BME280;11882;42.522;27.458;2022-08-18T04:03:07;100603.84;;;25.61;57.29
23419;BME280;11882;42.522;27.458;2022-08-18T04:05:38;100608.47;;;25.66;57.54
23419;BME280;11882;42.522;27.458;2022-08-18T04:08:05;100609.56;;;25.70;57.16
23419;BME280;11882;42.522;27.458;2022-08-18T04:10:33;100613.88;;;25.76;57.28
23419;BME280;11882;42.522;27.458;2022-08-18T04:13:01;100607.31;;;25.82;57.08
23419;BME280;11882;42.522;27.458;2022-08-18T04:15:31;100603.72;;;25.87;57.13
23419;BME280;11882;42.522;27.458;2022-08-18T04:17:59;100602.88;;;25.91;57.51
23419;BME280;11882;42.522;27.458;2022-08-18T04:20:28;100597.41;;;25.96;57.50
23419;BME280;11882;42.522;27.458;2022-08-18T04:22:56;100615.69;;;26.01;57.55
23419;BME280;11882;42.522;27.458;2022-08-18T04:25:23;100611.28;;;26.05;57.43
23419;BME280;11882;42.522;27.458;2022-08-18T04:27:51;100612.09;;;26.06;57.68
23419;BME280;11882;42.522;27.458;2022-08-18T04:30:22;100607.72;;;26.10;57.43
23419;BME280;11882;42.522;27.458;2022-08-18T04:32:50;100604.69;;;26.11;57.14
23419;BME280;11882;42.522;27.458;2022-08-18T04:35:17;100609.31;;;26.16;57.33
23419;BME280;11882;42.522;27.458;2022-08-18T04:37:45;100613.91;;;26.20;57.21
23419;BME280;11882;42.522;27.458;2022-08-18T04:40:12;100610.63;;;26.23;57.13
23419;BME280;11882;42.522;27.458;2022-08-18T04:42:39;100611.66;;;26.32;57.57
23419;BME280;11882;42.522;27.458;2022-08-18T04:45:07;100612.72;;;26.37;57.04
23419;BME280;11882;42.522;27.458;2022-08-18T04:47:34;100618.66;;;26.44;56.45
23419;BME280;11882;42.522;27.458;2022-08-18T04:50:03;100617.50;;;26.55;56.25
23419;BME280;11882;42.522;27.458;2022-08-18T04:52:30;100622.81;;;26.70;55.97
23419;BME280;11882;42.522;27.458;2022-08-18T04:55:14;100623.44;;;26.91;55.37
23419;BME280;11882;42.522;27.458;2022-08-18T04:57:41;100622.09;;;27.17;55.02
23419;BME280;11882;42.522;27.458;2022-08-18T05:00:09;100629.41;;;27.46;54.01
23419;BME280;11882;42.522;27.458;2022-08-18T05:02:37;100628.53;;;27.74;53.51
23419;BME280;11882;42.522;27.458;2022-08-18T05:05:07;100631.41;;;28.02;53.10
23419;BME280;11882;42.522;27.458;2022-08-18T05:07:35;100633.00;;;28.27;52.15
23419;BME280;11882;42.522;27.458;2022-08-18T05:10:03;100631.34;;;28.44;52.01
23419;BME280;11882;42.522;27.458;2022-08-18T05:12:30;100630.78;;;28.61;51.52
23419;BME280;11882;42.522;27.458;2022-08-18T05:14:57;100630.00;;;28.74;50.68
23419;BME280;11882;42.522;27.458;2022-08-18T05:17:24;100627.13;;;28.98;50.85
23419;BME280;11882;42.522;27.458;2022-08-18T05:19:53;100627.66;;;29.14;50.78
23419;BME280;11882;42.522;27.458;2022-08-18T05:22:21;100628.78;;;29.27;49.92
23419;BME280;11882;42.522;27.458;2022-08-18T05:24:48;100625.16;;;29.45;50.29
23419;BME280;11882;42.522;27.458;2022-08-18T05:27:15;100633.75;;;29.66;49.17
23419;BME280;11882;42.522;27.458;2022-08-18T05:29:42;100624.91;;;29.82;48.71
23419;BME280;11882;42.522;27.458;2022-08-18T05:32:09;100626.19;;;29.99;48.53
23419;BME280;11882;42.522;27.458;2022-08-18T05:34:36;100622.16;;;30.19;48.54
23419;BME280;11882;42.522;27.458;2022-08-18T05:37:19;100625.56;;;30.38;48.65
23419;BME280;11882;42.522;27.458;2022-08-18T05:39:55;100626.47;;;30.56;47.29
23419;BME280;11882;42.522;27.458;2022-08-18T05:42:25;100625.00;;;30.72;47.29
23419;BME280;11882;42.522;27.458;2022-08-18T05:44:53;100617.97;;;30.88;46.61
23419;BME280;11882;42.522;27.458;2022-08-18T05:47:24;100617.50;;;30.95;47.45
23419;BME280;11882;42.522;27.458;2022-08-18T05:49:52;100626.16;;;31.10;46.55
23419;BME280;11882;42.522;27.458;2022-08-18T05:52:26;100618.84;;;31.28;46.83
23419;BME280;11882;42.522;27.458;2022-08-18T05:55:00;100619.38;;;31.48;46.39
23419;BME280;11882;42.522;27.458;2022-08-18T05:57:48;100625.25;;;31.63;45.41
23419;BME280;11882;42.522;27.458;2022-08-18T06:00:18;100625.31;;;31.81;45.19
23419;BME280;11882;42.522;27.458;2022-08-18T06:02:53;100628.22;;;31.93;44.79
23419;BME280;11882;42.522;27.458;2022-08-18T06:05:24;100618.03;;;32.02;44.51
23419;BME280;11882;42.522;27.458;2022-08-18T06:07:56;100628.88;;;32.07;45.41
23419;BME280;11882;42.522;27.458;2022-08-18T06:10:26;100623.38;;;32.16;46.53
23419;BME280;11882;42.522;27.458;2022-08-18T06:12:57;100630.34;;;32.30;46.08
23419;BME280;11882;42.522;27.458;2022-08-18T06:15:31;100628.72;;;32.47;45.89
23419;BME280;11882;42.522;27.458;2022-08-18T06:18:11;100632.91;;;32.61;45.21
23419;BME280;11882;42.522;27.458;2022-08-18T06:20:51;100633.84;;;32.74;45.25
23419;BME280;11882;42.522;27.458;2022-08-18T06:23:29;100639.03;;;32.84;44.66
23419;BME280;11882;42.522;27.458;2022-08-18T06:26:08;100641.91;;;32.96;44.95
23419;BME280;11882;42.522;27.458;2022-08-18T06:28:52;100636.69;;;33.04;43.73
23419;BME280;11882;42.522;27.458;2022-08-18T06:31:30;100641.53;;;33.15;44.04
23419;BME280;11882;42.522;27.458;2022-08-18T06:34:06;100645.03;;;33.33;44.17
23419;BME280;11882;42.522;27.458;2022-08-18T06:36:47;100643.84;;;33.43;43.78
23419;BME280;11882;42.522;27.458;2022-08-18T06:39:22;100649.81;;;33.53;43.87
23419;BME280;11882;42.522;27.458;2022-08-18T06:41:53;100647.75;;;33.71;44.20
23419;BME280;11882;42.522;27.458;2022-08-18T06:44:25;100655.69;;;33.73;42.91
23419;BME280;11882;42.522;27.458;2022-08-18T06:46:58;100651.81;;;33.44;42.79
23419;BME280;11882;42.522;27.458;2022-08-18T06:49:38;100651.19;;;33.39;43.19
23419;BME280;11882;42.522;27.458;2022-08-18T06:52:22;100658.28;;;33.48;42.92
23419;BME280;11882;42.522;27.458;2022-08-18T06:54:50;100666.41;;;33.74;41.99
23419;BME280;11882;42.522;27.458;2022-08-18T06:57:26;100664.84;;;33.94;42.20
23419;BME280;11882;42.522;27.458;2022-08-18T06:59:56;100662.94;;;34.07;41.80
23419;BME280;11882;42.522;27.458;2022-08-18T07:02:30;100673.47;;;34.13;40.72
23419;BME280;11882;42.522;27.458;2022-08-18T07:05:03;100675.00;;;34.23;40.22
23419;BME280;11882;42.522;27.458;2022-08-18T07:07:34;100678.94;;;34.43;40.47
23419;BME280;11882;42.522;27.458;2022-08-18T07:10:06;100680.03;;;34.63;39.32
23419;BME280;11882;42.522;27.458;2022-08-18T07:13:05;100677.25;;;34.83;38.81
23419;BME280;11882;42.522;27.458;2022-08-18T07:15:32;100679.06;;;34.79;37.79
23419;BME280;11882;42.522;27.458;2022-08-18T07:18:02;100684.56;;;34.67;38.84
23419;BME280;11882;42.522;27.458;2022-08-18T07:20:40;100679.06;;;34.79;40.16
23419;BME280;11882;42.522;27.458;2022-08-18T07:23:08;100673.84;;;34.99;40.68
23419;BME280;11882;42.522;27.458;2022-08-18T07:25:50;100675.00;;;35.22;40.49
23419;BME280;11882;42.522;27.458;2022-08-18T07:28:28;100668.91;;;35.29;40.07
23419;BME280;11882;42.522;27.458;2022-08-18T07:31:17;100671.25;;;35.39;39.05
23419;BME280;11882;42.522;27.458;2022-08-18T07:33:50;100671.81;;;35.44;39.05
23419;BME280;11882;42.522;27.458;2022-08-18T07:36:22;100662.13;;;35.50;39.07
23419;BME280;11882;42.522;27.458;2022-08-18T07:38:55;100662.13;;;35.63;39.20
23419;BME280;11882;42.522;27.458;2022-08-18T07:41:25;100667.66;;;35.75;37.89
23419;BME280;11882;42.522;27.458;2022-08-18T07:44:04;100666.28;;;35.81;37.95
23419;BME280;11882;42.522;27.458;2022-08-18T07:46:41;100664.09;;;35.62;37.20
23419;BME280;11882;42.522;27.458;2022-08-18T07:49:17;100658.66;;;35.66;38.09
23419;BME280;11882;42.522;27.458;2022-08-18T07:51:47;100666.59;;;35.79;38.31
23419;BME280;11882;42.522;27.458;2022-08-18T07:54:27;100664.88;;;35.87;36.68
23419;BME280;11882;42.522;27.458;2022-08-18T07:57:02;100667.78;;;35.91;36.77
23419;BME280;11882;42.522;27.458;2022-08-18T07:59:37;100668.47;;;35.88;36.82
23419;BME280;11882;42.522;27.458;2022-08-18T08:02:18;100670.81;;;36.13;36.87
23419;BME280;11882;42.522;27.458;2022-08-18T08:04:53;100667.22;;;36.25;35.81
23419;BME280;11882;42.522;27.458;2022-08-18T08:07:28;100669.16;;;36.25;35.51
23419;BME280;11882;42.522;27.458;2022-08-18T08:10:08;100661.00;;;36.28;35.80
23419;BME280;11882;42.522;27.458;2022-08-18T08:12:43;100659.47;;;36.31;35.00
23419;BME280;11882;42.522;27.458;2022-08-18T08:15:20;100651.97;;;36.19;35.28
23419;BME280;11882;42.522;27.458;2022-08-18T08:17:56;100651.06;;;36.15;35.13
23419;BME280;11882;42.522;27.458;2022-08-18T08:20:29;100653.00;;;36.27;34.92
23419;BME280;11882;42.522;27.458;2022-08-18T08:23:06;100654.75;;;36.31;35.86
23419;BME280;11882;42.522;27.458;2022-08-18T08:25:48;100653.47;;;36.41;35.50
23419;BME280;11882;42.522;27.458;2022-08-18T08:28:28;100652.31;;;36.42;34.48
23419;BME280;11882;42.522;27.458;2022-08-18T08:31:04;100654.94;;;36.38;35.04
23419;BME280;11882;42.522;27.458;2022-08-18T08:33:39;100648.59;;;36.38;35.32
23419;BME280;11882;42.522;27.458;2022-08-18T08:36:12;100652.31;;;36.42;34.85
23419;BME280;11882;42.522;27.458;2022-08-18T08:38:44;100661.53;;;36.46;35.12
23419;BME280;11882;42.522;27.458;2022-08-18T08:41:16;100658.69;;;36.58;34.89
23419;BME280;11882;42.522;27.458;2022-08-18T08:43:50;100650.81;;;36.60;34.68
23419;BME280;11882;42.522;27.458;2022-08-18T08:46:22;100656.34;;;36.44;35.08
23419;BME280;11882;42.522;27.458;2022-08-18T08:48:57;100650.94;;;36.24;34.69
23419;BME280;11882;42.522;27.458;2022-08-18T08:51:32;100648.66;;;36.13;35.53
23419;BME280;11882;42.522;27.458;2022-08-18T08:54:06;100652.63;;;36.00;35.26
23419;BME280;11882;42.522;27.458;2022-08-18T08:56:41;100653.31;;;35.97;35.42
23419;BME280;11882;42.522;27.458;2022-08-18T08:59:12;100646.66;;;35.86;36.49
23419;BME280;11882;42.522;27.458;2022-08-18T09:01:47;100655.66;;;35.59;36.40
23419;BME280;11882;42.522;27.458;2022-08-18T09:04:30;100656.50;;;35.47;37.38
23419;BME280;11882;42.522;27.458;2022-08-18T09:07:12;100663.72;;;35.15;39.07
23419;BME280;11882;42.522;27.458;2022-08-18T09:13:08;100662.63;;;34.83;39.50
23419;BME280;11882;42.522;27.458;2022-08-18T09:16:06;100659.50;;;34.84;40.87
23419;BME280;11882;42.522;27.458;2022-08-18T09:18:47;100663.34;;;34.59;42.08
23419;BME280;11882;42.522;27.458;2022-08-18T09:21:25;100662.59;;;34.29;44.90
23419;BME280;11882;42.522;27.458;2022-08-18T09:24:02;100666.78;;;34.14;44.74
23419;BME280;11882;42.522;27.458;2022-08-18T09:26:46;100656.34;;;33.99;45.97
23419;BME280;11882;42.522;27.458;2022-08-18T09:29:24;100660.53;;;34.05;47.70
23419;BME280;11882;42.522;27.458;2022-08-18T09:35:34;100657.41;;;33.86;47.26
23419;BME280;11882;42.522;27.458;2022-08-18T09:38:10;100657.38;;;33.65;47.40
23419;BME280;11882;42.522;27.458;2022-08-18T09:41:03;100660.78;;;33.33;49.38
23419;BME280;11882;42.522;27.458;2022-08-18T09:43:55;100657.50;;;32.92;50.98
23419;BME280;11882;42.522;27.458;2022-08-18T09:46:53;100649.25;;;32.66;52.18
23419;BME280;11882;42.522;27.458;2022-08-18T09:49:44;100658.03;;;32.60;52.78
23419;BME280;11882;42.522;27.458;2022-08-18T09:55:54;100655.59;;;32.67;53.63
23419;BME280;11882;42.522;27.458;2022-08-18T09:58:51;100662.09;;;32.54;53.14
23419;BME280;11882;42.522;27.458;2022-08-18T10:01:35;100650.59;;;32.43;53.89
23419;BME280;11882;42.522;27.458;2022-08-18T10:04:24;100652.41;;;32.30;54.70
23419;BME280;11882;42.522;27.458;2022-08-18T10:06:53;100657.06;;;32.04;55.70
23419;BME280;11882;42.522;27.458;2022-08-18T10:09:30;100651.72;;;31.99;56.61
23419;BME280;11882;42.522;27.458;2022-08-18T10:12:24;100657.75;;;32.27;56.87
23419;BME280;11882;42.522;27.458;2022-08-18T10:15:28;100659.50;;;32.49;56.95
23419;BME280;11882;42.522;27.458;2022-08-18T10:18:25;100659.50;;;32.49;56.86
23419;BME280;11882;42.522;27.458;2022-08-18T10:21:06;100659.16;;;32.59;56.31
23419;BME280;11882;42.522;27.458;2022-08-18T10:23:44;100657.72;;;32.61;55.63
23419;BME280;11882;42.522;27.458;2022-08-18T10:29:55;100662.59;;;32.30;56.10
23419;BME280;11882;42.522;27.458;2022-08-18T10:32:43;100662.56;;;32.21;57.01
23419;BME280;11882;42.522;27.458;2022-08-18T10:38:26;100659.16;;;32.07;56.59
23419;BME280;11882;42.522;27.458;2022-08-18T10:40:59;100662.88;;;31.85;57.01
23419;BME280;11882;42.522;27.458;2022-08-18T10:43:34;100666.06;;;31.70;58.01
23419;BME280;11882;42.522;27.458;2022-08-18T10:46:04;100667.22;;;31.78;58.02
23419;BME280;11882;42.522;27.458;2022-08-18T10:48:40;100658.25;;;31.63;58.58
23419;BME280;11882;42.522;27.458;2022-08-18T10:51:17;100662.28;;;31.57;58.46
23419;BME280;11882;42.522;27.458;2022-08-18T10:53:50;100658.09;;;31.60;58.75
23419;BME280;11882;42.522;27.458;2022-08-18T10:56:28;100657.44;;;31.54;58.97
23419;BME280;11882;42.522;27.458;2022-08-18T10:59:07;100651.53;;;31.30;58.87
23419;BME280;11882;42.522;27.458;2022-08-18T11:02:04;100656.88;;;31.35;58.16
23419;BME280;11882;42.522;27.458;2022-08-18T11:04:41;100659.09;;;31.24;59.66
23419;BME280;11882;42.522;27.458;2022-08-18T11:07:11;100661.03;;;31.24;60.66
23419;BME280;11882;42.522;27.458;2022-08-18T11:09:41;100650.41;;;31.08;60.21
23419;BME280;11882;42.522;27.458;2022-08-18T11:12:11;100655.53;;;31.24;60.44
23419;BME280;11882;42.522;27.458;2022-08-18T11:15:08;100658.19;;;31.37;60.88
23419;BME280;11882;42.522;27.458;2022-08-18T11:17:52;100661.59;;;31.43;59.09
23419;BME280;11882;42.522;27.458;2022-08-18T11:20:25;100655.13;;;31.48;60.01
23419;BME280;11882;42.522;27.458;2022-08-18T11:22:55;100657.34;;;31.28;61.31
23419;BME280;11882;42.522;27.458;2022-08-18T11:25:27;100662.97;;;31.23;60.85
23419;BME280;11882;42.522;27.458;2022-08-18T11:27:54;100653.66;;;31.10;62.08
23419;BME280;11882;42.522;27.458;2022-08-18T11:30:24;100647.94;;;30.98;63.07
23419;BME280;11882;42.522;27.458;2022-08-18T11:32:53;100655.22;;;31.03;63.62
23419;BME280;11882;42.522;27.458;2022-08-18T11:35:24;100652.31;;;30.99;62.96
23419;BME280;11882;42.522;27.458;2022-08-18T11:37:55;100651.06;;;30.83;63.15
23419;BME280;11882;42.522;27.458;2022-08-18T11:40:32;100655.63;;;30.88;64.83
23419;BME280;11882;42.522;27.458;2022-08-18T11:43:03;100651.81;;;30.97;64.12
23419;BME280;11882;42.522;27.458;2022-08-18T11:48:21;100661.38;;;30.77;63.66
23419;BME280;11882;42.522;27.458;2022-08-18T11:50:59;100665.72;;;30.70;64.67
23419;BME280;11882;42.522;27.458;2022-08-18T11:53:37;100654.41;;;30.71;65.27
23419;BME280;11882;42.522;27.458;2022-08-18T11:56:15;100652.72;;;30.62;66.08
23419;BME280;11882;42.522;27.458;2022-08-18T11:58:43;100634.22;;;30.54;65.09
23419;BME280;11882;42.522;27.458;2022-08-18T12:01:28;100643.91;;;30.51;65.07
23419;BME280;11882;42.522;27.458;2022-08-18T12:04:14;100627.81;;;30.58;64.93
23419;BME280;11882;42.522;27.458;2022-08-18T12:06:54;100633.69;;;30.65;66.29
23419;BME280;11882;42.522;27.458;2022-08-18T12:09:32;100636.91;;;30.67;64.96
23419;BME280;11882;42.522;27.458;2022-08-18T12:12:02;100648.25;;;30.52;64.32
23419;BME280;11882;42.522;27.458;2022-08-18T12:14:33;100635.09;;;30.40;63.21
23419;BME280;11882;42.522;27.458;2022-08-18T12:17:16;100634.41;;;30.35;64.74
23419;BME280;11882;42.522;27.458;2022-08-18T12:19:45;100631.16;;;30.33;64.92
23419;BME280;11882;42.522;27.458;2022-08-18T12:22:15;100618.31;;;30.20;64.79
23419;BME280;11882;42.522;27.458;2022-08-18T12:24:43;100634.28;;;30.18;64.54
23419;BME280;11882;42.522;27.458;2022-08-18T12:27:12;100636.22;;;30.17;65.76
23419;BME280;11882;42.522;27.458;2022-08-18T12:29:40;100624.28;;;30.22;65.81
23419;BME280;11882;42.522;27.458;2022-08-18T12:32:07;100628.66;;;30.23;65.78
23419;BME280;11882;42.522;27.458;2022-08-18T12:34:35;100635.91;;;30.19;65.92
23419;BME280;11882;42.522;27.458;2022-08-18T12:37:04;100638.44;;;30.15;65.25
23419;BME280;11882;42.522;27.458;2022-08-18T12:39:33;100632.59;;;30.08;64.69
23419;BME280;11882;42.522;27.458;2022-08-18T12:42:01;100637.34;;;30.16;64.25
23419;BME280;11882;42.522;27.458;2022-08-18T12:44:28;100637.13;;;30.12;63.54
23419;BME280;11882;42.522;27.458;2022-08-18T12:46:55;100640.50;;;30.09;63.43
23419;BME280;11882;42.522;27.458;2022-08-18T12:49:23;100651.41;;;30.01;64.15
23419;BME280;11882;42.522;27.458;2022-08-18T12:51:51;100665.31;;;29.91;64.85
23419;BME280;11882;42.522;27.458;2022-08-18T12:54:21;100663.91;;;29.79;66.06
23419;BME280;11882;42.522;27.458;2022-08-18T12:56:50;100663.91;;;29.79;65.79
23419;BME280;11882;42.522;27.458;2022-08-18T12:59:18;100630.72;;;29.67;67.47
23419;BME280;11882;42.522;27.458;2022-08-18T13:01:45;100619.16;;;29.57;69.52
23419;BME280;11882;42.522;27.458;2022-08-18T13:04:12;100607.59;;;29.46;69.79
23419;BME280;11882;42.522;27.458;2022-08-18T13:06:44;100608.28;;;29.24;71.07
23419;BME280;11882;42.522;27.458;2022-08-18T13:09:12;100617.00;;;29.12;70.48
23419;BME280;11882;42.522;27.458;2022-08-18T13:11:40;100609.91;;;29.11;70.75
23419;BME280;11882;42.522;27.458;2022-08-18T13:14:07;100621.28;;;29.18;70.65
23419;BME280;11882;42.522;27.458;2022-08-18T13:16:38;100613.97;;;29.28;68.22
23419;BME280;11882;42.522;27.458;2022-08-18T13:19:06;100605.53;;;29.38;68.40
23419;BME280;11882;42.522;27.458;2022-08-18T13:21:33;100612.47;;;29.49;69.50
23419;BME280;11882;42.522;27.458;2022-08-18T13:24:00;100616.59;;;29.60;69.01
23419;BME280;11882;42.522;27.458;2022-08-18T13:26:31;100608.88;;;29.62;66.83
23419;BME280;11882;42.522;27.458;2022-08-18T13:29:00;100611.31;;;29.64;67.45